Nearby METAR Reports

 

CYOW - Ottawa Intl, Ontario, Canada
Distance from station: NNW 27km
Updated: 08/10/2022 9:00am
NOT Current
Few Clouds
Few Clouds
 Wind from calm
Wind: Calm
Temperature: 19°C
Dew Point: 15°C
Humidity: 78%
Barometer: 1019.6 hPa
Clouds: Few Clouds
Visibility: 24 km
Cloud details: Few Clouds 762 m
Few Clouds 3048 m
2022/08/10 13:00 CYOW 101300Z 00000KT 15SM FEW025 FEW100 19/15 A3011 RMK CU1AC1 CU TR AC TR SLP197 DENSITY ALT 800FT
KMSS - Massena, New York, USA
Distance from station: ESE 54km
Updated: 08/10/2022 9:53am
Overcast
Overcast
 Wind from S
Wind: S 7 km/h
Temperature: 18°C
Dew Point: 16°C
Humidity: 88%
Barometer: 1020 hPa
Clouds: Overcast
Visibility: 16 km
Cloud details: Mostly cloudy 914 m
Overcast 1189 m
2022/08/10 13:53 KMSS 101353Z AUTO 19004KT 10SM BKN030 OVC039 18/16 A3012 RMK AO2 SLP199 T01830161
KOGS - Ogdensburg Intl, New York, USA
Distance from station: S 48km
Updated: 08/10/2022 9:55am
Overcast
Overcast
 Wind from calm
Wind: Calm
Temperature: 19°C
Dew Point: 17°C
Humidity: 88%
Barometer: 1019 hPa
Clouds: Overcast
Visibility: 16 km
Cloud details: Few Clouds 366 m
Partly cloudy 792 m
Overcast 1036 m
2022/08/10 13:55 KOGS 101355Z AUTO 00000KT 10SM FEW012 SCT026 OVC034 19/17 A3009 RMK AO2
 
CXKE - Kemptville, Ontario, Canada
Distance from station: SW 15km
Updated: 08/10/2022 9:00am
NOT Current

 Wind from W
Wind: W 2 km/h
Temperature: 18°C
Dew Point: 17°C
Humidity: 94%
2022/08/10 13:00 CXKE 101300Z AUTO 27001KT 18/17 RMK AO1 SLP198 T01840169